sensor_id;sensor_type;location;lat;lon;timestamp;P1;durP1;ratioP1;P2;durP2;ratioP2
14096;SDS011;7125;48.106;11.544;2023-08-01T00:00:10;2.95;;;2.13;;
14096;SDS011;7125;48.106;11.544;2023-08-01T00:02:37;2.10;;;1.90;;
14096;SDS011;7125;48.106;11.544;2023-08-01T00:05:07;3.50;;;2.15;;
14096;SDS011;7125;48.106;11.544;2023-08-01T00:07:34;2.83;;;2.45;;
14096;SDS011;7125;48.106;11.544;2023-08-01T00:10:01;2.28;;;2.08;;
14096;SDS011;7125;48.106;11.544;2023-08-01T00:12:29;7.05;;;3.63;;
14096;SDS011;7125;48.106;11.544;2023-08-01T00:14:57;2.78;;;1.92;;
14096;SDS011;7125;48.106;11.544;2023-08-01T00:17:24;1.98;;;1.88;;
14096;SDS011;7125;48.106;11.544;2023-08-01T00:19:51;2.88;;;2.45;;
14096;SDS011;7125;48.106;11.544;2023-08-01T00:22:20;3.53;;;1.98;;
14096;SDS011;7125;48.106;11.544;2023-08-01T00:24:47;3.83;;;2.25;;
14096;SDS011;7125;48.106;11.544;2023-08-01T00:27:14;2.63;;;2.20;;
14096;SDS011;7125;48.106;11.544;2023-08-01T00:29:41;4.65;;;2.42;;
14096;SDS011;7125;48.106;11.544;2023-08-01T00:32:11;3.85;;;2.70;;
14096;SDS011;7125;48.106;11.544;2023-08-01T00:34:38;3.38;;;2.08;;
14096;SDS011;7125;48.106;11.544;2023-08-01T00:37:05;2.55;;;2.35;;
14096;SDS011;7125;48.106;11.544;2023-08-01T00:39:32;2.25;;;2.05;;
14096;SDS011;7125;48.106;11.544;2023-08-01T00:42:03;2.33;;;1.92;;
14096;SDS011;7125;48.106;11.544;2023-08-01T00:44:30;4.40;;;2.95;;
14096;SDS011;7125;48.106;11.544;2023-08-01T00:46:57;2.88;;;2.28;;
14096;SDS011;7125;48.106;11.544;2023-08-01T00:49:29;5.80;;;2.85;;
14096;SDS011;7125;48.106;11.544;2023-08-01T00:51:56;2.50;;;2.30;;
14096;SDS011;7125;48.106;11.544;2023-08-01T00:54:23;3.00;;;2.47;;
14096;SDS011;7125;48.106;11.544;2023-08-01T00:56:50;7.25;;;2.47;;
14096;SDS011;7125;48.106;11.544;2023-08-01T00:59:18;2.67;;;2.45;;
14096;SDS011;7125;48.106;11.544;2023-08-01T01:01:45;3.50;;;2.55;;
14096;SDS011;7125;48.106;11.544;2023-08-01T01:04:12;2.60;;;2.40;;
14096;SDS011;7125;48.106;11.544;2023-08-01T01:06:51;3.45;;;2.40;;
14096;SDS011;7125;48.106;11.544;2023-08-01T01:09:24;4.20;;;2.63;;
14096;SDS011;7125;48.106;11.544;2023-08-01T01:12:02;3.05;;;2.75;;
14096;SDS011;7125;48.106;11.544;2023-08-01T02:21:54;2.95;;;2.58;;
14096;SDS011;7125;48.106;11.544;2023-08-01T02:24:21;3.50;;;2.67;;
14096;SDS011;7125;48.106;11.544;2023-08-01T02:26:50;3.65;;;2.55;;
14096;SDS011;7125;48.106;11.544;2023-08-01T02:29:17;4.50;;;2.70;;
14096;SDS011;7125;48.106;11.544;2023-08-01T02:31:44;2.75;;;2.47;;
14096;SDS011;7125;48.106;11.544;2023-08-01T02:34:11;4.32;;;2.58;;
14096;SDS011;7125;48.106;11.544;2023-08-01T02:36:38;2.83;;;2.63;;
14096;SDS011;7125;48.106;11.544;2023-08-01T02:39:24;3.03;;;2.50;;
14096;SDS011;7125;48.106;11.544;2023-08-01T02:41:51;3.80;;;3.03;;
14096;SDS011;7125;48.106;11.544;2023-08-01T02:44:21;4.25;;;3.15;;
14096;SDS011;7125;48.106;11.544;2023-08-01T02:46:48;4.38;;;2.53;;
14096;SDS011;7125;48.106;11.544;2023-08-01T02:49:17;2.90;;;2.60;;
14096;SDS011;7125;48.106;11.544;2023-08-01T02:51:44;3.00;;;2.55;;
14096;SDS011;7125;48.106;11.544;2023-08-01T02:54:11;3.63;;;2.88;;
14096;SDS011;7125;48.106;11.544;2023-08-01T02:56:41;12.02;;;2.67;;
14096;SDS011;7125;48.106;11.544;2023-08-01T02:59:10;3.58;;;2.67;;
14096;SDS011;7125;48.106;11.544;2023-08-01T03:01:37;3.20;;;2.70;;
14096;SDS011;7125;48.106;11.544;2023-08-01T03:04:05;2.63;;;2.42;;
14096;SDS011;7125;48.106;11.544;2023-08-01T03:06:32;3.30;;;2.78;;
14096;SDS011;7125;48.106;11.544;2023-08-01T03:12:43;2.92;;;2.53;;
14096;SDS011;7125;48.106;11.544;2023-08-01T03:15:11;2.38;;;2.00;;
14096;SDS011;7125;48.106;11.544;2023-08-01T03:17:38;2.55;;;2.35;;
14096;SDS011;7125;48.106;11.544;2023-08-01T03:20:05;3.65;;;2.55;;
14096;SDS011;7125;48.106;11.544;2023-08-01T03:22:36;2.72;;;2.50;;
14096;SDS011;7125;48.106;11.544;2023-08-01T03:25:04;2.60;;;2.40;;
14096;SDS011;7125;48.106;11.544;2023-08-01T03:27:33;2.40;;;2.20;;
14096;SDS011;7125;48.106;11.544;2023-08-01T03:30:01;5.57;;;2.58;;
14096;SDS011;7125;48.106;11.544;2023-08-01T03:32:29;3.05;;;2.75;;
14096;SDS011;7125;48.106;11.544;2023-08-01T03:34:56;2.72;;;2.53;;
14096;SDS011;7125;48.106;11.544;2023-08-01T03:37:25;3.85;;;2.22;;
14096;SDS011;7125;48.106;11.544;2023-08-01T03:39:52;3.45;;;2.80;;
14096;SDS011;7125;48.106;11.544;2023-08-01T03:42:19;3.28;;;2.97;;
14096;SDS011;7125;48.106;11.544;2023-08-01T03:44:46;4.10;;;2.60;;
14096;SDS011;7125;48.106;11.544;2023-08-01T03:47:14;3.47;;;2.80;;
14096;SDS011;7125;48.106;11.544;2023-08-01T03:49:41;4.07;;;2.25;;
14096;SDS011;7125;48.106;11.544;2023-08-01T03:52:10;2.72;;;2.53;;
14096;SDS011;7125;48.106;11.544;2023-08-01T03:54:38;3.08;;;2.67;;
14096;SDS011;7125;48.106;11.544;2023-08-01T03:57:05;3.00;;;2.70;;
14096;SDS011;7125;48.106;11.544;2023-08-01T03:59:33;2.70;;;2.47;;
14096;SDS011;7125;48.106;11.544;2023-08-01T04:02:03;3.60;;;3.30;;
14096;SDS011;7125;48.106;11.544;2023-08-01T04:04:31;4.78;;;3.58;;
14096;SDS011;7125;48.106;11.544;2023-08-01T04:06:59;2.97;;;2.63;;
14096;SDS011;7125;48.106;11.544;2023-08-01T04:09:26;3.10;;;2.80;;
14096;SDS011;7125;48.106;11.544;2023-08-01T04:11:53;4.32;;;2.90;;
14096;SDS011;7125;48.106;11.544;2023-08-01T04:14:20;4.93;;;3.78;;
14096;SDS011;7125;48.106;11.544;2023-08-01T04:16:46;2.45;;;2.25;;
14096;SDS011;7125;48.106;11.544;2023-08-01T04:19:13;2.75;;;2.55;;
14096;SDS011;7125;48.106;11.544;2023-08-01T04:21:42;3.38;;;2.65;;
14096;SDS011;7125;48.106;11.544;2023-08-01T04:24:09;6.07;;;3.90;;
14096;SDS011;7125;48.106;11.544;2023-08-01T04:26:35;4.43;;;3.47;;
14096;SDS011;7125;48.106;11.544;2023-08-01T04:29:03;3.28;;;2.83;;
14096;SDS011;7125;48.106;11.544;2023-08-01T04:31:30;3.78;;;2.83;;
14096;SDS011;7125;48.106;11.544;2023-08-01T04:33:57;3.90;;;3.38;;
14096;SDS011;7125;48.106;11.544;2023-08-01T04:36:24;3.60;;;3.30;;
14096;SDS011;7125;48.106;11.544;2023-08-01T04:38:52;4.85;;;3.78;;
14096;SDS011;7125;48.106;11.544;2023-08-01T04:41:19;4.30;;;3.05;;
14096;SDS011;7125;48.106;11.544;2023-08-01T04:43:48;4.80;;;3.88;;
14096;SDS011;7125;48.106;11.544;2023-08-01T04:46:15;5.63;;;4.20;;
14096;SDS011;7125;48.106;11.544;2023-08-01T04:48:42;4.57;;;3.70;;
14096;SDS011;7125;48.106;11.544;2023-08-01T04:51:09;6.68;;;4.25;;
14096;SDS011;7125;48.106;11.544;2023-08-01T04:53:36;6.10;;;3.65;;
14096;SDS011;7125;48.106;11.544;2023-08-01T04:56:05;6.60;;;3.80;;
14096;SDS011;7125;48.106;11.544;2023-08-01T04:58:32;4.97;;;3.65;;
14096;SDS011;7125;48.106;11.544;2023-08-01T05:00:59;5.00;;;3.38;;
14096;SDS011;7125;48.106;11.544;2023-08-01T05:03:26;5.72;;;3.42;;
14096;SDS011;7125;48.106;11.544;2023-08-01T05:05:53;5.43;;;3.85;;
14096;SDS011;7125;48.106;11.544;2023-08-01T05:08:20;4.88;;;4.10;;
14096;SDS011;7125;48.106;11.544;2023-08-01T05:10:47;4.22;;;3.83;;
14096;SDS011;7125;48.106;11.544;2023-08-01T05:13:15;5.45;;;3.50;;
14096;SDS011;7125;48.106;11.544;2023-08-01T05:15:44;7.28;;;4.22;;
14096;SDS011;7125;48.106;11.544;2023-08-01T05:18:12;7.00;;;4.80;;
14096;SDS011;7125;48.106;11.544;2023-08-01T05:20:39;4.75;;;4.30;;
14096;SDS011;7125;48.106;11.544;2023-08-01T05:23:09;4.75;;;4.32;;
14096;SDS011;7125;48.106;11.544;2023-08-01T05:25:36;7.28;;;4.70;;
14096;SDS011;7125;48.106;11.544;2023-08-01T05:28:03;4.55;;;4.13;;
14096;SDS011;7125;48.106;11.544;2023-08-01T05:30:32;4.93;;;4.05;;
14096;SDS011;7125;48.106;11.544;2023-08-01T05:32:59;5.57;;;4.45;;
14096;SDS011;7125;48.106;11.544;2023-08-01T05:35:27;5.18;;;4.22;;
14096;SDS011;7125;48.106;11.544;2023-08-01T05:37:59;5.18;;;4.43;;
14096;SDS011;7125;48.106;11.544;2023-08-01T05:40:26;6.28;;;3.85;;
14096;SDS011;7125;48.106;11.544;2023-08-01T05:42:53;9.73;;;4.88;;
14096;SDS011;7125;48.106;11.544;2023-08-01T05:45:20;4.20;;;3.80;;
14096;SDS011;7125;48.106;11.544;2023-08-01T05:47:48;7.20;;;4.53;;
14096;SDS011;7125;48.106;11.544;2023-08-01T05:50:15;3.92;;;3.60;;
14096;SDS011;7125;48.106;11.544;2023-08-01T05:52:42;7.00;;;4.20;;
14096;SDS011;7125;48.106;11.544;2023-08-01T05:55:09;5.47;;;4.22;;
14096;SDS011;7125;48.106;11.544;2023-08-01T05:57:36;4.85;;;4.22;;
14096;SDS011;7125;48.106;11.544;2023-08-01T06:00:03;6.47;;;4.65;;
14096;SDS011;7125;48.106;11.544;2023-08-01T06:02:37;6.03;;;4.50;;
14096;SDS011;7125;48.106;11.544;2023-08-01T06:05:06;7.15;;;4.90;;
14096;SDS011;7125;48.106;11.544;2023-08-01T06:07:33;5.40;;;4.05;;
14096;SDS011;7125;48.106;11.544;2023-08-01T06:10:00;6.18;;;3.90;;
14096;SDS011;7125;48.106;11.544;2023-08-01T06:12:27;6.47;;;5.28;;
14096;SDS011;7125;48.106;11.544;2023-08-01T06:14:54;8.88;;;4.07;;
14096;SDS011;7125;48.106;11.544;2023-08-01T06:17:21;7.78;;;5.05;;
14096;SDS011;7125;48.106;11.544;2023-08-01T06:19:48;4.50;;;4.10;;
14096;SDS011;7125;48.106;11.544;2023-08-01T06:22:17;4.72;;;4.32;;
14096;SDS011;7125;48.106;11.544;2023-08-01T06:24:44;5.55;;;4.20;;
14096;SDS011;7125;48.106;11.544;2023-08-01T06:27:11;5.55;;;3.85;;
14096;SDS011;7125;48.106;11.544;2023-08-01T06:29:40;7.07;;;4.28;;
14096;SDS011;7125;48.106;11.544;2023-08-01T06:32:07;8.18;;;5.07;;
14096;SDS011;7125;48.106;11.544;2023-08-01T06:34:34;6.20;;;4.85;;
14096;SDS011;7125;48.106;11.544;2023-08-01T06:37:01;6.43;;;4.97;;
14096;SDS011;7125;48.106;11.544;2023-08-01T06:39:30;4.60;;;4.20;;
14096;SDS011;7125;48.106;11.544;2023-08-01T06:41:57;6.13;;;3.58;;
14096;SDS011;7125;48.106;11.544;2023-08-01T06:44:24;7.05;;;4.25;;
14096;SDS011;7125;48.106;11.544;2023-08-01T06:46:51;6.97;;;3.97;;
14096;SDS011;7125;48.106;11.544;2023-08-01T06:49:18;4.65;;;4.05;;
14096;SDS011;7125;48.106;11.544;2023-08-01T06:51:44;5.18;;;3.95;;
14096;SDS011;7125;48.106;11.544;2023-08-01T06:54:11;4.63;;;3.58;;
14096;SDS011;7125;48.106;11.544;2023-08-01T06:56:40;4.93;;;3.58;;
14096;SDS011;7125;48.106;11.544;2023-08-01T06:59:12;3.55;;;3.05;;
14096;SDS011;7125;48.106;11.544;2023-08-01T07:01:39;5.97;;;2.95;;
14096;SDS011;7125;48.106;11.544;2023-08-01T07:04:08;6.15;;;3.20;;
14096;SDS011;7125;48.106;11.544;2023-08-01T07:06:35;5.03;;;3.33;;
14096;SDS011;7125;48.106;11.544;2023-08-01T07:09:02;4.07;;;3.30;;
14096;SDS011;7125;48.106;11.544;2023-08-01T07:11:29;6.03;;;3.65;;
14096;SDS011;7125;48.106;11.544;2023-08-01T07:13:57;6.60;;;3.40;;
14096;SDS011;7125;48.106;11.544;2023-08-01T07:16:25;4.50;;;2.80;;
14096;SDS011;7125;48.106;11.544;2023-08-01T07:18:52;6.80;;;2.80;;
14096;SDS011;7125;48.106;11.544;2023-08-01T07:21:19;4.10;;;2.92;;
14096;SDS011;7125;48.106;11.544;2023-08-01T07:23:45;6.47;;;3.13;;
14096;SDS011;7125;48.106;11.544;2023-08-01T07:26:13;3.75;;;3.00;;
14096;SDS011;7125;48.106;11.544;2023-08-01T07:28:41;3.92;;;3.38;;
14096;SDS011;7125;48.106;11.544;2023-08-01T07:31:10;3.15;;;2.85;;
14096;SDS011;7125;48.106;11.544;2023-08-01T07:33:37;5.82;;;2.47;;
14096;SDS011;7125;48.106;11.544;2023-08-01T07:36:04;4.47;;;3.30;;
14096;SDS011;7125;48.106;11.544;2023-08-01T07:38:31;7.05;;;3.15;;
14096;SDS011;7125;48.106;11.544;2023-08-01T07:41:01;4.72;;;3.13;;
14096;SDS011;7125;48.106;11.544;2023-08-01T07:43:29;5.07;;;2.67;;
14096;SDS011;7125;48.106;11.544;2023-08-01T07:45:56;6.22;;;3.17;;
14096;SDS011;7125;48.106;11.544;2023-08-01T07:48:25;3.28;;;2.60;;
14096;SDS011;7125;48.106;11.544;2023-08-01T07:50:52;2.55;;;2.35;;
14096;SDS011;7125;48.106;11.544;2023-08-01T07:53:19;2.78;;;2.30;;
14096;SDS011;7125;48.106;11.544;2023-08-01T07:55:46;2.95;;;2.55;;
14096;SDS011;7125;48.106;11.544;2023-08-01T07:58:13;4.65;;;2.38;;
14096;SDS011;7125;48.106;11.544;2023-08-01T08:00:41;6.70;;;3.10;;
14096;SDS011;7125;48.106;11.544;2023-08-01T08:03:08;7.72;;;2.90;;
14096;SDS011;7125;48.106;11.544;2023-08-01T08:05:37;3.85;;;2.90;;
14096;SDS011;7125;48.106;11.544;2023-08-01T08:08:04;10.93;;;3.63;;
14096;SDS011;7125;48.106;11.544;2023-08-01T08:10:31;4.07;;;2.95;;
14096;SDS011;7125;48.106;11.544;2023-08-01T08:12:58;5.53;;;2.85;;
14096;SDS011;7125;48.106;11.544;2023-08-01T08:15:25;3.63;;;2.55;;
14096;SDS011;7125;48.106;11.544;2023-08-01T08:17:52;5.07;;;3.13;;
14096;SDS011;7125;48.106;11.544;2023-08-01T08:20:19;5.60;;;3.50;;
14096;SDS011;7125;48.106;11.544;2023-08-01T08:22:47;4.95;;;3.38;;
14096;SDS011;7125;48.106;11.544;2023-08-01T08:25:14;3.92;;;3.08;;
14096;SDS011;7125;48.106;11.544;2023-08-01T08:27:41;6.35;;;3.50;;
14096;SDS011;7125;48.106;11.544;2023-08-01T08:30:08;5.43;;;2.85;;
14096;SDS011;7125;48.106;11.544;2023-08-01T08:32:36;4.75;;;3.08;;
14096;SDS011;7125;48.106;11.544;2023-08-01T08:35:03;4.13;;;3.05;;
14096;SDS011;7125;48.106;11.544;2023-08-01T08:37:30;3.78;;;3.35;;
14096;SDS011;7125;48.106;11.544;2023-08-01T08:39:59;5.57;;;3.65;;
14096;SDS011;7125;48.106;11.544;2023-08-01T08:42:26;3.63;;;3.08;;
14096;SDS011;7125;48.106;11.544;2023-08-01T08:44:54;7.65;;;4.05;;
14096;SDS011;7125;48.106;11.544;2023-08-01T08:47:23;3.65;;;3.20;;
14096;SDS011;7125;48.106;11.544;2023-08-01T08:49:52;7.93;;;3.90;;
14096;SDS011;7125;48.106;11.544;2023-08-01T08:52:22;4.05;;;2.92;;
14096;SDS011;7125;48.106;11.544;2023-08-01T08:54:49;4.78;;;3.00;;
14096;SDS011;7125;48.106;11.544;2023-08-01T08:57:19;4.03;;;2.70;;
14096;SDS011;7125;48.106;11.544;2023-08-01T08:59:47;7.05;;;3.33;;
14096;SDS011;7125;48.106;11.544;2023-08-01T09:02:15;6.05;;;3.42;;
14096;SDS011;7125;48.106;11.544;2023-08-01T09:04:43;4.22;;;3.50;;
14096;SDS011;7125;48.106;11.544;2023-08-01T09:07:10;6.28;;;3.65;;
14096;SDS011;7125;48.106;11.544;2023-08-01T09:09:39;4.95;;;3.70;;
14096;SDS011;7125;48.106;11.544;2023-08-01T09:12:06;4.93;;;3.20;;
14096;SDS011;7125;48.106;11.544;2023-08-01T09:14:36;4.63;;;3.17;;
14096;SDS011;7125;48.106;11.544;2023-08-01T09:17:07;5.00;;;3.20;;
14096;SDS011;7125;48.106;11.544;2023-08-01T09:19:34;5.05;;;3.35;;
14096;SDS011;7125;48.106;11.544;2023-08-01T09:22:01;4.25;;;3.58;;
14096;SDS011;7125;48.106;11.544;2023-08-01T09:24:35;5.35;;;3.85;;
14096;SDS011;7125;48.106;11.544;2023-08-01T09:27:03;6.95;;;3.70;;
14096;SDS011;7125;48.106;11.544;2023-08-01T09:29:31;6.97;;;4.05;;
14096;SDS011;7125;48.106;11.544;2023-08-01T09:31:59;8.90;;;4.30;;
14096;SDS011;7125;48.106;11.544;2023-08-01T09:34:26;9.50;;;4.22;;
14096;SDS011;7125;48.106;11.544;2023-08-01T09:36:57;6.25;;;3.55;;
14096;SDS011;7125;48.106;11.544;2023-08-01T09:39:25;4.90;;;3.20;;
14096;SDS011;7125;48.106;11.544;2023-08-01T09:41:55;7.25;;;4.15;;
14096;SDS011;7125;48.106;11.544;2023-08-01T09:44:23;6.05;;;4.00;;
14096;SDS011;7125;48.106;11.544;2023-08-01T09:46:59;6.68;;;3.90;;
14096;SDS011;7125;48.106;11.544;2023-08-01T09:49:27;4.78;;;3.80;;
14096;SDS011;7125;48.106;11.544;2023-08-01T09:51:55;5.57;;;3.85;;
14096;SDS011;7125;48.106;11.544;2023-08-01T09:54:22;5.82;;;4.35;;
14096;SDS011;7125;48.106;11.544;2023-08-01T09:56:51;5.18;;;3.75;;
14096;SDS011;7125;48.106;11.544;2023-08-01T09:59:19;3.75;;;3.33;;
14096;SDS011;7125;48.106;11.544;2023-08-01T10:01:47;7.93;;;3.13;;
14096;SDS011;7125;48.106;11.544;2023-08-01T10:04:19;6.03;;;3.63;;
14096;SDS011;7125;48.106;11.544;2023-08-01T10:06:51;5.57;;;3.30;;
14096;SDS011;7125;48.106;11.544;2023-08-01T10:09:22;3.75;;;2.90;;
14096;SDS011;7125;48.106;11.544;2023-08-01T10:11:50;5.05;;;3.30;;
14096;SDS011;7125;48.106;11.544;2023-08-01T10:14:17;6.90;;;3.22;;
14096;SDS011;7125;48.106;11.544;2023-08-01T10:16:46;3.33;;;3.03;;
14096;SDS011;7125;48.106;11.544;2023-08-01T10:19:16;3.92;;;3.45;;
14096;SDS011;7125;48.106;11.544;2023-08-01T10:21:46;6.05;;;3.72;;
14096;SDS011;7125;48.106;11.544;2023-08-01T10:24:15;4.05;;;3.33;;
14096;SDS011;7125;48.106;11.544;2023-08-01T10:26:44;4.18;;;3.20;;
14096;SDS011;7125;48.106;11.544;2023-08-01T10:29:11;3.17;;;2.88;;
14096;SDS011;7125;48.106;11.544;2023-08-01T10:31:38;5.90;;;3.67;;
14096;SDS011;7125;48.106;11.544;2023-08-01T10:34:16;4.47;;;2.92;;
14096;SDS011;7125;48.106;11.544;2023-08-01T10:36:54;4.05;;;3.25;;
14096;SDS011;7125;48.106;11.544;2023-08-01T10:39:21;4.25;;;2.67;;
14096;SDS011;7125;48.106;11.544;2023-08-01T10:41:56;3.75;;;2.90;;
14096;SDS011;7125;48.106;11.544;2023-08-01T10:44:24;3.03;;;2.70;;
14096;SDS011;7125;48.106;11.544;2023-08-01T10:46:52;5.32;;;3.95;;
14096;SDS011;7125;48.106;11.544;2023-08-01T10:49:32;5.75;;;3.38;;
14096;SDS011;7125;48.106;11.544;2023-08-01T10:52:03;4.55;;;3.55;;
14096;SDS011;7125;48.106;11.544;2023-08-01T10:54:31;5.25;;;2.95;;
14096;SDS011;7125;48.106;11.544;2023-08-01T10:56:59;4.35;;;3.20;;
14096;SDS011;7125;48.106;11.544;2023-08-01T10:59:27;4.80;;;2.90;;
14096;SDS011;7125;48.106;11.544;2023-08-01T11:01:57;6.18;;;3.45;;
14096;SDS011;7125;48.106;11.544;2023-08-01T11:04:25;4.45;;;3.88;;
14096;SDS011;7125;48.106;11.544;2023-08-01T11:06:52;3.45;;;2.42;;
14096;SDS011;7125;48.106;11.544;2023-08-01T11:09:23;4.55;;;3.17;;
14096;SDS011;7125;48.106;11.544;2023-08-01T11:11:52;4.78;;;2.83;;
14096;SDS011;7125;48.106;11.544;2023-08-01T11:14:20;3.33;;;2.55;;
14096;SDS011;7125;48.106;11.544;2023-08-01T11:16:48;5.32;;;2.53;;
14096;SDS011;7125;48.106;11.544;2023-08-01T11:19:19;2.63;;;1.98;;
14096;SDS011;7125;48.106;11.544;2023-08-01T11:21:47;4.03;;;2.00;;
14096;SDS011;7125;48.106;11.544;2023-08-01T11:24:15;2.20;;;2.00;;
14096;SDS011;7125;48.106;11.544;2023-08-01T11:26:45;4.10;;;1.95;;
14096;SDS011;7125;48.106;11.544;2023-08-01T11:29:14;3.00;;;2.17;;
14096;SDS011;7125;48.106;11.544;2023-08-01T11:31:51;4.05;;;2.25;;
14096;SDS011;7125;48.106;11.544;2023-08-01T11:34:20;3.40;;;2.88;;
14096;SDS011;7125;48.106;11.544;2023-08-01T11:36:47;2.28;;;1.80;;
14096;SDS011;7125;48.106;11.544;2023-08-01T11:39:14;3.95;;;2.78;;
14096;SDS011;7125;48.106;11.544;2023-08-01T11:41:43;4.00;;;2.10;;
14096;SDS011;7125;48.106;11.544;2023-08-01T11:44:11;2.97;;;1.85;;
14096;SDS011;7125;48.106;11.544;2023-08-01T11:46:38;2.97;;;2.25;;
14096;SDS011;7125;48.106;11.544;2023-08-01T11:49:06;2.30;;;2.05;;
14096;SDS011;7125;48.106;11.544;2023-08-01T11:51:38;3.63;;;2.25;;
14096;SDS011;7125;48.106;11.544;2023-08-01T11:54:06;2.65;;;2.10;;
14096;SDS011;7125;48.106;11.544;2023-08-01T11:56:34;3.13;;;2.10;;
14096;SDS011;7125;48.106;11.544;2023-08-01T11:59:08;2.13;;;1.63;;
14096;SDS011;7125;48.106;11.544;2023-08-01T12:01:39;4.43;;;2.80;;
14096;SDS011;7125;48.106;11.544;2023-08-01T12:04:06;4.05;;;2.72;;
14096;SDS011;7125;48.106;11.544;2023-08-01T12:06:33;4.07;;;2.38;;
14096;SDS011;7125;48.106;11.544;2023-08-01T12:09:06;3.00;;;2.42;;
14096;SDS011;7125;48.106;11.544;2023-08-01T12:11:35;2.90;;;2.58;;
14096;SDS011;7125;48.106;11.544;2023-08-01T12:14:04;3.13;;;2.60;;
14096;SDS011;7125;48.106;11.544;2023-08-01T12:16:34;5.15;;;2.28;;
14096;SDS011;7125;48.106;11.544;2023-08-01T12:19:01;3.67;;;1.98;;
14096;SDS011;7125;48.106;11.544;2023-08-01T12:21:29;2.35;;;2.08;;
14096;SDS011;7125;48.106;11.544;2023-08-01T12:23:57;3.33;;;2.00;;
14096;SDS011;7125;48.106;11.544;2023-08-01T12:26:24;2.95;;;2.30;;
14096;SDS011;7125;48.106;11.544;2023-08-01T12:28:51;2.25;;;1.77;;
14096;SDS011;7125;48.106;11.544;2023-08-01T12:31:18;4.63;;;2.65;;
14096;SDS011;7125;48.106;11.544;2023-08-01T12:33:47;3.13;;;2.53;;
14096;SDS011;7125;48.106;11.544;2023-08-01T12:36:14;2.97;;;1.70;;
14096;SDS011;7125;48.106;11.544;2023-08-01T12:38:42;2.85;;;2.10;;
14096;SDS011;7125;48.106;11.544;2023-08-01T12:41:09;2.03;;;1.80;;
14096;SDS011;7125;48.106;11.544;2023-08-01T12:43:36;2.22;;;1.88;;
14096;SDS011;7125;48.106;11.544;2023-08-01T12:46:03;2.20;;;1.70;;
14096;SDS011;7125;48.106;11.544;2023-08-01T12:48:30;3.08;;;2.17;;
14096;SDS011;7125;48.106;11.544;2023-08-01T12:50:58;2.88;;;1.58;;
14096;SDS011;7125;48.106;11.544;2023-08-01T12:53:25;2.15;;;1.95;;
14096;SDS011;7125;48.106;11.544;2023-08-01T12:55:58;2.00;;;1.80;;
14096;SDS011;7125;48.106;11.544;2023-08-01T12:58:25;2.38;;;1.65;;
14096;SDS011;7125;48.106;11.544;2023-08-01T13:00:53;2.03;;;1.75;;
14096;SDS011;7125;48.106;11.544;2023-08-01T13:03:20;2.55;;;2.13;;
14096;SDS011;7125;48.106;11.544;2023-08-01T13:05:47;6.03;;;2.00;;
14096;SDS011;7125;48.106;11.544;2023-08-01T13:08:15;1.60;;;1.50;;
14096;SDS011;7125;48.106;11.544;2023-08-01T13:10:42;1.92;;;1.67;;
14096;SDS011;7125;48.106;11.544;2023-08-01T13:13:11;1.55;;;1.45;;
14096;SDS011;7125;48.106;11.544;2023-08-01T13:15:38;4.20;;;2.17;;
14096;SDS011;7125;48.106;11.544;2023-08-01T13:18:05;2.05;;;1.63;;
14096;SDS011;7125;48.106;11.544;2023-08-01T13:20:31;1.77;;;1.48;;
14096;SDS011;7125;48.106;11.544;2023-08-01T13:22:58;2.60;;;2.40;;
14096;SDS011;7125;48.106;11.544;2023-08-01T13:25:27;2.20;;;1.67;;
14096;SDS011;7125;48.106;11.544;2023-08-01T13:27:54;3.45;;;2.47;;
14096;SDS011;7125;48.106;11.544;2023-08-01T13:30:21;2.95;;;1.77;;
14096;SDS011;7125;48.106;11.544;2023-08-01T13:32:47;3.47;;;2.20;;
14096;SDS011;7125;48.106;11.544;2023-08-01T13:35:14;1.15;;;1.05;;
14096;SDS011;7125;48.106;11.544;2023-08-01T13:37:42;3.53;;;1.77;;
14096;SDS011;7125;48.106;11.544;2023-08-01T13:40:09;2.60;;;2.05;;
14096;SDS011;7125;48.106;11.544;2023-08-01T13:42:40;2.35;;;2.15;;
14096;SDS011;7125;48.106;11.544;2023-08-01T13:45:07;5.15;;;1.95;;
14096;SDS011;7125;48.106;11.544;2023-08-01T13:47:34;3.70;;;2.10;;
14096;SDS011;7125;48.106;11.544;2023-08-01T13:50:01;2.28;;;2.00;;
14096;SDS011;7125;48.106;11.544;2023-08-01T13:52:28;2.28;;;1.88;;
14096;SDS011;7125;48.106;11.544;2023-08-01T13:54:55;2.08;;;1.88;;
14096;SDS011;7125;48.106;11.544;2023-08-01T13:57:22;1.90;;;1.45;;
14096;SDS011;7125;48.106;11.544;2023-08-01T13:59:51;2.00;;;1.80;;
14096;SDS011;7125;48.106;11.544;2023-08-01T14:02:18;5.20;;;2.40;;
14096;SDS011;7125;48.106;11.544;2023-08-01T14:04:44;3.55;;;2.42;;
14096;SDS011;7125;48.106;11.544;2023-08-01T14:07:11;4.30;;;2.00;;
14096;SDS011;7125;48.106;11.544;2023-08-01T14:09:41;3.15;;;2.47;;
14096;SDS011;7125;48.106;11.544;2023-08-01T14:12:08;2.83;;;2.05;;
14096;SDS011;7125;48.106;11.544;2023-08-01T14:14:35;5.57;;;2.28;;
14096;SDS011;7125;48.106;11.544;2023-08-01T14:17:03;2.38;;;1.85;;
14096;SDS011;7125;48.106;11.544;2023-08-01T14:19:30;2.22;;;1.95;;
14096;SDS011;7125;48.106;11.544;2023-08-01T14:21:57;3.00;;;2.10;;
14096;SDS011;7125;48.106;11.544;2023-08-01T14:24:24;1.80;;;1.50;;
14096;SDS011;7125;48.106;11.544;2023-08-01T14:26:51;1.70;;;1.60;;
14096;SDS011;7125;48.106;11.544;2023-08-01T14:29:18;2.35;;;2.15;;
14096;SDS011;7125;48.106;11.544;2023-08-01T14:31:47;1.55;;;1.45;;
14096;SDS011;7125;48.106;11.544;2023-08-01T14:34:17;5.30;;;1.90;;
14096;SDS011;7125;48.106;11.544;2023-08-01T14:36:43;3.40;;;2.03;;
14096;SDS011;7125;48.106;11.544;2023-08-01T14:39:10;2.33;;;1.70;;
14096;SDS011;7125;48.106;11.544;2023-08-01T14:41:37;1.95;;;1.73;;
14096;SDS011;7125;48.106;11.544;2023-08-01T14:44:04;2.58;;;1.77;;
14096;SDS011;7125;48.106;11.544;2023-08-01T14:46:32;1.63;;;1.48;;
14096;SDS011;7125;48.106;11.544;2023-08-01T14:49:00;3.17;;;2.08;;
14096;SDS011;7125;48.106;11.544;2023-08-01T14:51:28;2.10;;;1.90;;
14096;SDS011;7125;48.106;11.544;2023-08-01T14:53:55;2.15;;;1.95;;
14096;SDS011;7125;48.106;11.544;2023-08-01T14:56:22;1.58;;;1.48;;
14096;SDS011;7125;48.106;11.544;2023-08-01T14:58:49;3.15;;;1.67;;
14096;SDS011;7125;48.106;11.544;2023-08-01T15:01:16;3.75;;;1.52;;
14096;SDS011;7125;48.106;11.544;2023-08-01T15:03:44;3.15;;;1.13;;
14096;SDS011;7125;48.106;11.544;2023-08-01T15:06:11;1.40;;;1.30;;
14096;SDS011;7125;48.106;11.544;2023-08-01T15:08:41;0.98;;;0.88;;
14096;SDS011;7125;48.106;11.544;2023-08-01T15:11:08;1.63;;;1.00;;
14096;SDS011;7125;48.106;11.544;2023-08-01T15:13:35;2.25;;;0.85;;
14096;SDS011;7125;48.106;11.544;2023-08-01T15:16:03;1.45;;;0.90;;
14096;SDS011;7125;48.106;11.544;2023-08-01T15:18:30;1.10;;;0.85;;
14096;SDS011;7125;48.106;11.544;2023-08-01T15:20:59;1.50;;;1.20;;
14096;SDS011;7125;48.106;11.544;2023-08-01T15:23:26;1.35;;;1.23;;
14096;SDS011;7125;48.106;11.544;2023-08-01T15:25:55;1.05;;;0.95;;
14096;SDS011;7125;48.106;11.544;2023-08-01T15:28:23;1.75;;;1.10;;
14096;SDS011;7125;48.106;11.544;2023-08-01T15:31:00;1.33;;;0.80;;
14096;SDS011;7125;48.106;11.544;2023-08-01T15:33:27;1.27;;;1.17;;
14096;SDS011;7125;48.106;11.544;2023-08-01T15:35:56;1.45;;;1.23;;
14096;SDS011;7125;48.106;11.544;2023-08-01T15:38:28;1.15;;;0.93;;
14096;SDS011;7125;48.106;11.544;2023-08-01T15:40:58;1.92;;;1.05;;
14096;SDS011;7125;48.106;11.544;2023-08-01T15:43:28;1.45;;;1.02;;
14096;SDS011;7125;48.106;11.544;2023-08-01T15:45:55;1.45;;;0.77;;
14096;SDS011;7125;48.106;11.544;2023-08-01T15:48:22;2.40;;;1.20;;
14096;SDS011;7125;48.106;11.544;2023-08-01T15:50:49;0.73;;;0.73;;
14096;SDS011;7125;48.106;11.544;2023-08-01T15:53:16;1.23;;;1.10;;
14096;SDS011;7125;48.106;11.544;2023-08-01T15:55:43;1.20;;;1.10;;
14096;SDS011;7125;48.106;11.544;2023-08-01T15:58:11;1.23;;;1.13;;
14096;SDS011;7125;48.106;11.544;2023-08-01T16:00:38;1.50;;;1.00;;
14096;SDS011;7125;48.106;11.544;2023-08-01T16:03:05;1.48;;;1.17;;